sensor_id;sensor_type;location;lat;lon;timestamp;pressure;altitude;pressure_sealevel;temperature;humidity
929;BME280;451;47.988;7.842;2022-10-22T00:04:35;61949.28;;;-143.76;100.00
929;BME280;451;47.988;7.842;2022-10-22T00:14:36;61949.28;;;-143.76;100.00
929;BME280;451;47.988;7.842;2022-10-22T00:24:39;61949.28;;;-143.76;100.00
929;BME280;451;47.988;7.842;2022-10-22T00:34:40;61949.28;;;-143.76;100.00
929;BME280;451;47.988;7.842;2022-10-22T00:45:13;61949.28;;;-143.76;100.00
929;BME280;451;47.988;7.842;2022-10-22T00:55:14;61949.28;;;-143.76;100.00
929;BME280;451;47.988;7.842;2022-10-22T01:05:15;61949.28;;;-143.76;100.00
929;BME280;451;47.988;7.842;2022-10-22T01:15:23;61949.28;;;-143.76;100.00
929;BME280;451;47.988;7.842;2022-10-22T01:36:05;61949.28;;;-143.76;100.00
929;BME280;451;47.988;7.842;2022-10-22T01:46:09;61949.28;;;-143.76;100.00
929;BME280;451;47.988;7.842;2022-10-22T02:06:31;61949.28;;;-143.76;100.00
929;BME280;451;47.988;7.842;2022-10-22T02:16:38;61949.28;;;-143.76;100.00
929;BME280;451;47.988;7.842;2022-10-22T02:27:25;61949.28;;;-143.76;100.00
929;BME280;451;47.988;7.842;2022-10-22T02:37:06;61949.28;;;-143.76;100.00
929;BME280;451;47.988;7.842;2022-10-22T02:47:08;61949.28;;;-143.76;100.00
929;BME280;451;47.988;7.842;2022-10-22T02:57:08;61949.28;;;-143.76;100.00
929;BME280;451;47.988;7.842;2022-10-22T03:07:08;61949.28;;;-143.76;100.00
929;BME280;451;47.988;7.842;2022-10-22T03:17:09;61949.28;;;-143.76;100.00
929;BME280;451;47.988;7.842;2022-10-22T03:27:11;61949.28;;;-143.76;100.00
929;BME280;451;47.988;7.842;2022-10-22T03:37:12;61949.28;;;-143.76;100.00
929;BME280;451;47.988;7.842;2022-10-22T03:46:14;98426.03;;;13.66;100.00
929;BME280;451;47.988;7.842;2022-10-22T03:55:16;98423.00;;;13.05;100.00
929;BME280;451;47.988;7.842;2022-10-22T04:04:19;97358.16;;;6.98;100.00
929;BME280;451;47.988;7.842;2022-10-22T04:13:21;97405.03;;;7.89;100.00
929;BME280;451;47.988;7.842;2022-10-22T04:22:23;98409.88;;;13.54;100.00
929;BME280;451;47.988;7.842;2022-10-22T04:31:25;98177.47;;;11.86;100.00
929;BME280;451;47.988;7.842;2022-10-22T04:40:28;98047.59;;;11.85;100.00
929;BME280;451;47.988;7.842;2022-10-22T04:50:28;61949.28;;;-143.76;100.00
929;BME280;451;47.988;7.842;2022-10-22T05:00:29;61949.28;;;-143.76;100.00
929;BME280;451;47.988;7.842;2022-10-22T05:10:29;61949.28;;;-143.76;100.00
929;BME280;451;47.988;7.842;2022-10-22T05:20:29;61949.28;;;-143.76;100.00
929;BME280;451;47.988;7.842;2022-10-22T05:30:30;61949.28;;;-143.76;100.00
929;BME280;451;47.988;7.842;2022-10-22T05:40:30;61949.28;;;-143.76;100.00
929;BME280;451;47.988;7.842;2022-10-22T05:50:30;61949.28;;;-143.76;100.00
929;BME280;451;47.988;7.842;2022-10-22T06:00:31;61949.28;;;-143.76;100.00
929;BME280;451;47.988;7.842;2022-10-22T06:09:35;98452.25;;;13.46;100.00
929;BME280;451;47.988;7.842;2022-10-22T06:18:37;98425.00;;;13.03;100.00
929;BME280;451;47.988;7.842;2022-10-22T06:27:38;98400.16;;;13.33;100.00
929;BME280;451;47.988;7.842;2022-10-22T06:36:40;98473.94;;;13.84;100.00
929;BME280;451;47.988;7.842;2022-10-22T06:45:46;98305.19;;;12.40;100.00
929;BME280;451;47.988;7.842;2022-10-22T06:54:47;98327.41;;;11.87;100.00
929;BME280;451;47.988;7.842;2022-10-22T07:03:52;98402.03;;;12.82;100.00
929;BME280;451;47.988;7.842;2022-10-22T07:12:54;98399.13;;;13.13;100.00
929;BME280;451;47.988;7.842;2022-10-22T07:21:56;98538.66;;;14.16;100.00
929;BME280;451;47.988;7.842;2022-10-22T07:30:59;98551.91;;;14.44;100.00
929;BME280;451;47.988;7.842;2022-10-22T07:40:00;98444.16;;;14.59;100.00
929;BME280;451;47.988;7.842;2022-10-22T07:49:02;98458.44;;;14.37;100.00
929;BME280;451;47.988;7.842;2022-10-22T07:58:04;98556.47;;;15.32;100.00
929;BME280;451;47.988;7.842;2022-10-22T08:07:06;98170.50;;;13.47;100.00
929;BME280;451;47.988;7.842;2022-10-22T08:16:07;98502.13;;;15.49;100.00
929;BME280;451;47.988;7.842;2022-10-22T08:25:09;98417.94;;;15.45;100.00
929;BME280;451;47.988;7.842;2022-10-22T08:34:11;98450.28;;;16.72;100.00
929;BME280;451;47.988;7.842;2022-10-22T08:52:34;98493.63;;;17.55;100.00
929;BME280;451;47.988;7.842;2022-10-22T09:01:39;98585.88;;;17.61;100.00
929;BME280;451;47.988;7.842;2022-10-22T09:20:19;98492.31;;;17.32;100.00
929;BME280;451;47.988;7.842;2022-10-22T09:29:33;98582.19;;;17.93;100.00
929;BME280;451;47.988;7.842;2022-10-22T09:38:40;98557.81;;;18.28;100.00
929;BME280;451;47.988;7.842;2022-10-22T09:47:45;98586.75;;;18.18;100.00
929;BME280;451;47.988;7.842;2022-10-22T09:57:11;98588.88;;;18.34;100.00
929;BME280;451;47.988;7.842;2022-10-22T10:06:21;98588.88;;;18.83;100.00
929;BME280;451;47.988;7.842;2022-10-22T10:15:27;98607.81;;;18.93;100.00
929;BME280;451;47.988;7.842;2022-10-22T10:24:58;98606.25;;;19.29;100.00
929;BME280;451;47.988;7.842;2022-10-22T10:53:20;98603.25;;;19.73;100.00
929;BME280;451;47.988;7.842;2022-10-22T11:02:52;98606.56;;;20.29;100.00
929;BME280;451;47.988;7.842;2022-10-22T11:12:05;98508.75;;;19.93;100.00
929;BME280;451;47.988;7.842;2022-10-22T11:21:30;98511.88;;;19.78;100.00
929;BME280;451;47.988;7.842;2022-10-22T11:30:34;98599.31;;;20.47;100.00
929;BME280;451;47.988;7.842;2022-10-22T11:39:41;98649.25;;;20.35;100.00
929;BME280;451;47.988;7.842;2022-10-22T11:49:01;98530.78;;;19.88;100.00
929;BME280;451;47.988;7.842;2022-10-22T11:58:27;98521.75;;;20.66;96.19
929;BME280;451;47.988;7.842;2022-10-22T12:25:57;98607.47;;;21.22;91.60
929;BME280;451;47.988;7.842;2022-10-22T12:35:04;98520.97;;;21.05;87.66
929;BME280;451;47.988;7.842;2022-10-22T12:44:06;98476.63;;;20.81;87.52
929;BME280;451;47.988;7.842;2022-10-22T12:53:14;98549.66;;;21.33;87.16
929;BME280;451;47.988;7.842;2022-10-22T13:02:23;98546.53;;;21.81;83.21
929;BME280;451;47.988;7.842;2022-10-22T13:11:41;98537.84;;;21.74;79.29
929;BME280;451;47.988;7.842;2022-10-22T13:20:50;98482.09;;;21.26;76.71
929;BME280;451;47.988;7.842;2022-10-22T13:29:53;98281.00;;;19.87;73.15
929;BME280;451;47.988;7.842;2022-10-22T13:38:56;98464.38;;;21.65;73.85
929;BME280;451;47.988;7.842;2022-10-22T13:47:58;98319.94;;;20.23;76.28
929;BME280;451;47.988;7.842;2022-10-22T13:57:00;98440.44;;;21.02;74.79
929;BME280;451;47.988;7.842;2022-10-22T14:06:01;98242.00;;;19.98;69.25
929;BME280;451;47.988;7.842;2022-10-22T14:15:03;98521.81;;;21.46;69.27
929;BME280;451;47.988;7.842;2022-10-22T14:24:07;98443.88;;;21.14;72.15
929;BME280;451;47.988;7.842;2022-10-22T14:33:24;98512.59;;;21.53;73.30
929;BME280;451;47.988;7.842;2022-10-22T14:42:28;98360.88;;;20.52;73.22
929;BME280;451;47.988;7.842;2022-10-22T14:51:30;98396.53;;;20.58;74.29
929;BME280;451;47.988;7.842;2022-10-22T15:00:32;98216.59;;;19.95;71.67
929;BME280;451;47.988;7.842;2022-10-22T15:09:37;98369.72;;;20.81;70.01
929;BME280;451;47.988;7.842;2022-10-22T15:18:38;98444.56;;;20.81;86.19
929;BME280;451;47.988;7.842;2022-10-22T15:27:40;98523.34;;;20.55;93.92
929;BME280;451;47.988;7.842;2022-10-22T15:36:42;98548.56;;;20.47;93.77
929;BME280;451;47.988;7.842;2022-10-22T15:45:44;98528.59;;;19.85;100.00
929;BME280;451;47.988;7.842;2022-10-22T15:54:56;98074.38;;;16.89;100.00
929;BME280;451;47.988;7.842;2022-10-22T16:03:58;98536.94;;;19.29;100.00
929;BME280;451;47.988;7.842;2022-10-22T16:13:01;98506.16;;;18.53;100.00
929;BME280;451;47.988;7.842;2022-10-22T16:22:03;98469.22;;;17.71;100.00
929;BME280;451;47.988;7.842;2022-10-22T16:31:06;98552.66;;;17.70;100.00
929;BME280;451;47.988;7.842;2022-10-22T16:40:10;98469.22;;;16.88;100.00
929;BME280;451;47.988;7.842;2022-10-22T16:49:11;98401.63;;;16.20;100.00
929;BME280;451;47.988;7.842;2022-10-22T16:58:13;98448.16;;;15.96;100.00
929;BME280;451;47.988;7.842;2022-10-22T17:07:15;98423.41;;;15.37;100.00
929;BME280;451;47.988;7.842;2022-10-22T17:16:20;98527.28;;;15.73;100.00
929;BME280;451;47.988;7.842;2022-10-22T17:25:37;98541.09;;;15.08;100.00
929;BME280;451;47.988;7.842;2022-10-22T17:34:42;98403.66;;;14.59;100.00
929;BME280;451;47.988;7.842;2022-10-22T17:43:44;98438.41;;;14.97;100.00
929;BME280;451;47.988;7.842;2022-10-22T17:52:46;98547.97;;;15.50;100.00
929;BME280;451;47.988;7.842;2022-10-22T18:01:48;98498.53;;;15.09;100.00
929;BME280;451;47.988;7.842;2022-10-22T18:10:49;98537.69;;;15.20;100.00
929;BME280;451;47.988;7.842;2022-10-22T18:19:51;98527.28;;;15.19;100.00
929;BME280;451;47.988;7.842;2022-10-22T18:28:54;98258.75;;;12.82;100.00
929;BME280;451;47.988;7.842;2022-10-22T18:37:56;98288.16;;;13.56;100.00
929;BME280;451;47.988;7.842;2022-10-22T18:46:58;97779.38;;;9.32;100.00
929;BME280;451;47.988;7.842;2022-10-22T18:56:00;97745.91;;;5.98;100.00
929;BME280;451;47.988;7.842;2022-10-22T19:05:04;98474.66;;;14.27;100.00
929;BME280;451;47.988;7.842;2022-10-22T19:14:06;96837.63;;;3.37;100.00
929;BME280;451;47.988;7.842;2022-10-22T19:23:08;98540.28;;;14.66;100.00
929;BME280;451;47.988;7.842;2022-10-22T19:32:13;98668.03;;;13.16;100.00
929;BME280;451;47.988;7.842;2022-10-22T19:41:17;98538.19;;;14.55;100.00
929;BME280;451;47.988;7.842;2022-10-22T19:50:19;98408.28;;;13.88;100.00
929;BME280;451;47.988;7.842;2022-10-22T19:59:21;98394.59;;;13.50;100.00
929;BME280;451;47.988;7.842;2022-10-22T20:08:24;98047.19;;;11.31;100.00
929;BME280;451;47.988;7.842;2022-10-22T20:17:26;98496.47;;;13.80;100.00
929;BME280;451;47.988;7.842;2022-10-22T20:26:28;98081.69;;;11.36;100.00
929;BME280;451;47.988;7.842;2022-10-22T20:35:31;97821.09;;;10.00;100.00
929;BME280;451;47.988;7.842;2022-10-22T20:44:33;98556.38;;;14.43;100.00
929;BME280;451;47.988;7.842;2022-10-22T20:53:35;98559.47;;;14.26;100.00
929;BME280;451;47.988;7.842;2022-10-22T21:02:36;98352.34;;;12.86;100.00
929;BME280;451;47.988;7.842;2022-10-22T21:11:40;98180.50;;;12.04;100.00
929;BME280;451;47.988;7.842;2022-10-22T21:20:42;98529.69;;;14.38;100.00
929;BME280;451;47.988;7.842;2022-10-22T21:29:44;98452.66;;;13.92;100.00
929;BME280;451;47.988;7.842;2022-10-22T21:38:45;98499.78;;;14.38;100.00
929;BME280;451;47.988;7.842;2022-10-22T21:47:47;97021.94;;;5.04;100.00
929;BME280;451;47.988;7.842;2022-10-22T21:56:49;97567.00;;;8.59;100.00
929;BME280;451;47.988;7.842;2022-10-22T22:06:00;98496.13;;;14.39;100.00
929;BME280;451;47.988;7.842;2022-10-22T22:15:03;98374.72;;;13.11;100.00
929;BME280;451;47.988;7.842;2022-10-22T22:24:06;98208.50;;;12.05;100.00
929;BME280;451;47.988;7.842;2022-10-22T22:33:08;99093.81;;;14.55;100.00
929;BME280;451;47.988;7.842;2022-10-22T22:42:10;98283.59;;;12.51;100.00
929;BME280;451;47.988;7.842;2022-10-22T22:51:12;98417.75;;;13.48;100.00
929;BME280;451;47.988;7.842;2022-10-22T23:00:14;97067.56;;;4.92;100.00
929;BME280;451;47.988;7.842;2022-10-22T23:09:18;98193.28;;;11.86;100.00
929;BME280;451;47.988;7.842;2022-10-22T23:18:20;98214.00;;;10.32;100.00
929;BME280;451;47.988;7.842;2022-10-22T23:27:22;98303.44;;;12.47;100.00
929;BME280;451;47.988;7.842;2022-10-22T23:36:24;98535.53;;;13.85;100.00
929;BME280;451;47.988;7.842;2022-10-22T23:45:26;98115.13;;;9.63;100.00
929;BME280;451;47.988;7.842;2022-10-22T23:54:27;98565.34;;;13.21;100.00
